Time;durP1;ratioP1;P1;durP2;ratioP2;P2;SDS_P1;SDS_P2;PMS_P1;PMS_P2;Temp;Humidity;BMP_temperature;BMP_pressure;BME280_temperature;BME280_humidity;BME280_pressure;Samples;Min_cycle;Max_cycle;Signal;HPM_P1;HPM_P2
2021/04/07 00:00:50;;;;;;;17.25;7.60;;;7.10;66.30;;;;;;5074198;28;20063;-76
2021/04/07 00:03:16;;;;;;;15.73;7.68;;;7.10;66.50;;;;;;5073008;28;20020;-75
2021/04/07 00:05:44;;;;;;;15.70;7.38;;;7.10;66.60;;;;;;5074435;28;20028;-75
2021/04/07 00:08:10;;;;;;;13.10;7.60;;;7.10;66.70;;;;;;5074194;28;20463;-76
2021/04/07 00:10:41;;;;;;;15.90;7.60;;;7.00;66.80;;;;;;5074436;28;20103;-76
2021/04/07 00:13:08;;;;;;;14.52;7.65;;;7.00;67.10;;;;;;5074421;28;20024;-76
2021/04/07 00:15:35;;;;;;;13.07;7.97;;;7.00;67.20;;;;;;5074149;28;20485;-75
2021/04/07 00:18:02;;;;;;;11.20;7.32;;;7.00;67.40;;;;;;5072957;28;20076;-75
2021/04/07 00:20:29;;;;;;;12.10;7.15;;;7.10;67.70;;;;;;5073686;28;20103;-76
2021/04/07 00:22:56;;;;;;;13.57;8.27;;;7.10;67.80;;;;;;5073354;28;20078;-76
2021/04/07 00:25:23;;;;;;;13.63;8.20;;;7.10;67.90;;;;;;5074108;28;20036;-76
2021/04/07 00:27:57;;;;;;;12.90;8.13;;;7.10;67.90;;;;;;5074035;28;20392;-76
2021/04/07 00:30:26;;;;;;;14.18;8.00;;;7.10;68.00;;;;;;5072794;28;20115;-76
2021/04/07 00:32:53;;;;;;;17.00;8.25;;;7.10;68.20;;;;;;5074254;28;20025;-76
2021/04/07 00:35:19;;;;;;;17.50;8.80;;;7.20;68.30;;;;;;5073907;28;20086;-76
2021/04/07 00:37:45;;;;;;;16.58;8.82;;;7.20;68.30;;;;;;5072821;28;20028;-76
2021/04/07 00:40:12;;;;;;;17.70;8.30;;;7.20;68.30;;;;;;5073511;28;20060;-77
2021/04/07 00:42:39;;;;;;;14.05;7.63;;;7.20;68.40;;;;;;5073970;28;20035;-76
2021/04/07 00:45:06;;;;;;;13.80;7.78;;;7.20;68.40;;;;;;5074193;28;20492;-76
2021/04/07 00:47:33;;;;;;;19.27;9.52;;;7.20;68.50;;;;;;5074381;28;20115;-76
2021/04/07 00:49:58;;;;;;;18.10;9.45;;;7.20;68.50;;;;;;5073083;28;20129;-77
2021/04/07 00:52:24;;;;;;;13.43;8.52;;;7.20;68.80;;;;;;5072362;28;20486;-76
2021/04/07 00:54:52;;;;;;;19.17;8.95;;;7.20;68.80;;;;;;5072542;28;20070;-76
2021/04/07 00:57:19;;;;;;;15.50;8.70;;;7.10;69.00;;;;;;5072422;28;20025;-77
2021/04/07 00:59:46;;;;;;;21.13;9.77;;;7.10;69.30;;;;;;5072887;28;20155;-76
2021/04/07 01:02:13;;;;;;;30.58;11.25;;;7.10;69.60;;;;;;5071950;28;20021;-77
2021/04/07 01:04:39;;;;;;;40.53;15.52;;;7.10;69.90;;;;;;5071938;28;20513;-77
2021/04/07 01:07:05;;;;;;;49.05;19.23;;;7.20;70.20;;;;;;5070964;28;20020;-75
2021/04/07 01:09:30;;;;;;;49.63;19.60;;;7.20;70.40;;;;;;5072325;28;20025;-76
2021/04/07 01:11:56;;;;;;;67.43;22.58;;;7.30;70.50;;;;;;5072425;28;20068;-76
2021/04/07 01:14:22;;;;;;;75.40;25.13;;;7.30;70.50;;;;;;5072345;28;20078;-76
2021/04/07 01:16:50;;;;;;;65.47;23.42;;;7.40;70.60;;;;;;5072160;28;20029;-76
2021/04/07 01:19:18;;;;;;;63.72;24.38;;;7.40;70.70;;;;;;5070695;28;20399;-77
2021/04/07 01:21:44;;;;;;;54.08;21.98;;;7.60;70.90;;;;;;5068401;28;20054;-75
2021/04/07 01:24:10;;;;;;;56.85;20.52;;;7.60;70.90;;;;;;5071910;28;20064;-75
2021/04/07 01:26:36;;;;;;;56.70;22.05;;;7.70;71.00;;;;;;5070228;28;20043;-76
2021/04/07 01:29:04;;;;;;;48.15;19.58;;;7.80;70.90;;;;;;5070596;28;20041;-75
2021/04/07 01:31:30;;;;;;;32.75;17.23;;;7.80;71.60;;;;;;5072078;28;20036;-75
2021/04/07 01:33:55;;;;;;;35.45;17.35;;;7.80;70.90;;;;;;5075256;28;20025;-76
2021/04/07 01:36:24;;;;;;;27.20;17.13;;;7.80;70.80;;;;;;5077188;28;20029;-76
2021/04/07 01:38:50;;;;;;;38.13;21.48;;;7.90;71.00;;;;;;5077226;28;20115;-76
2021/04/07 01:41:21;;;;;;;35.72;22.08;;;7.90;71.10;;;;;;5077076;28;20025;-76
2021/04/07 01:43:48;;;;;;;37.40;21.85;;;7.90;71.00;;;;;;5077365;28;20055;-76
2021/04/07 01:46:14;;;;;;;41.08;25.42;;;7.90;70.90;;;;;;5077302;28;20364;-76
2021/04/07 01:48:41;;;;;;;38.70;22.73;;;7.80;70.90;;;;;;5077629;28;20043;-76
2021/04/07 01:51:09;;;;;;;28.67;18.10;;;7.80;71.20;;;;;;5077452;28;20093;-76
2021/04/07 01:53:35;;;;;;;27.30;18.13;;;7.80;71.30;;;;;;5075989;28;20097;-76
2021/04/07 01:56:01;;;;;;;53.97;33.58;;;7.80;71.40;;;;;;5076628;28;20502;-76
2021/04/07 01:58:26;;;;;;;47.05;27.98;;;7.80;71.40;;;;;;5076951;28;20099;-76
2021/04/07 02:00:52;;;;;;;45.05;26.77;;;7.90;71.40;;;;;;5076914;28;20035;-75
2021/04/07 02:03:18;;;;;;;34.75;21.05;;;7.80;71.30;;;;;;5070596;28;20021;-76
2021/04/07 02:05:44;;;;;;;30.13;14.75;;;7.90;71.30;;;;;;5065012;28;20068;-75
2021/04/07 02:08:09;;;;;;;24.48;14.30;;;7.80;71.10;;;;;;5074704;28;20025;-76
2021/04/07 02:10:35;;;;;;;23.65;13.38;;;7.80;71.20;;;;;;5076128;28;20025;-75
2021/04/07 02:13:03;;;;;;;32.10;17.80;;;7.80;71.20;;;;;;5076363;28;20367;-76
2021/04/07 02:15:28;;;;;;;32.50;21.13;;;7.70;71.30;;;;;;5076239;28;20414;-75
2021/04/07 02:17:54;;;;;;;40.40;20.73;;;7.70;71.50;;;;;;5075235;28;20089;-75
2021/04/07 02:20:20;;;;;;;33.28;20.77;;;7.70;71.70;;;;;;5075203;28;20434;-75
2021/04/07 02:22:50;;;;;;;75.63;26.90;;;7.70;71.80;;;;;;5076448;28;20162;-75
2021/04/07 02:25:17;;;;;;;183.43;48.25;;;7.70;72.20;;;;;;5076708;28;20078;-75
2021/04/07 02:27:43;;;;;;;139.98;42.35;;;7.70;72.30;;;;;;5076699;28;20032;-75
2021/04/07 02:30:15;;;;;;;135.32;40.72;;;7.70;72.40;;;;;;5076593;28;20025;-75
2021/04/07 02:32:41;;;;;;;170.95;49.95;;;7.70;72.60;;;;;;5076051;28;20037;-76
2021/04/07 02:35:07;;;;;;;180.35;55.90;;;7.80;72.70;;;;;;5074627;28;20037;-77
2021/04/07 02:37:33;;;;;;;158.63;48.13;;;7.80;72.50;;;;;;5074618;28;20036;-76
2021/04/07 02:39:59;;;;;;;141.50;43.35;;;7.80;72.50;;;;;;5076010;28;20032;-76
2021/04/07 02:42:25;;;;;;;103.68;36.25;;;7.80;72.50;;;;;;5074570;28;20020;-76
2021/04/07 02:44:51;;;;;;;105.53;34.05;;;7.80;72.50;;;;;;5075140;28;20067;-76
2021/04/07 02:47:17;;;;;;;97.05;33.00;;;7.80;72.60;;;;;;5076148;28;20106;-76
2021/04/07 02:49:43;;;;;;;84.97;30.23;;;7.90;72.70;;;;;;5076219;28;20028;-76
2021/04/07 02:52:09;;;;;;;86.63;32.78;;;7.90;72.80;;;;;;5076148;28;20095;-76
2021/04/07 02:54:35;;;;;;;58.92;26.73;;;8.00;72.90;;;;;;5074731;28;20032;-76
2021/04/07 02:57:03;;;;;;;51.38;21.85;;;8.00;72.90;;;;;;5074870;28;20088;-76
2021/04/07 02:59:29;;;;;;;55.50;24.90;;;8.10;72.70;;;;;;5075851;28;20036;-76
2021/04/07 03:01:55;;;;;;;72.45;27.88;;;8.10;72.70;;;;;;5075782;28;20029;-76
2021/04/07 03:04:20;;;;;;;59.97;26.23;;;8.20;72.60;;;;;;5075374;28;20043;-76
2021/04/07 03:06:46;;;;;;;64.95;25.45;;;8.20;72.50;;;;;;5075810;28;20028;-75
2021/04/07 03:09:12;;;;;;;51.92;22.70;;;8.20;72.40;;;;;;5075692;28;20021;-77
2021/04/07 03:11:38;;;;;;;54.33;21.42;;;8.20;72.40;;;;;;5075561;28;20024;-76
2021/04/07 03:14:05;;;;;;;49.70;21.45;;;8.10;72.30;;;;;;5075575;28;20391;-75
2021/04/07 03:16:31;;;;;;;40.47;20.13;;;8.10;72.30;;;;;;5075416;28;20037;-76
2021/04/07 03:18:57;;;;;;;41.25;20.55;;;8.10;72.40;;;;;;5075027;28;20137;-76
2021/04/07 03:21:23;;;;;;;45.63;21.85;;;8.10;72.40;;;;;;5075708;28;20071;-77
2021/04/07 03:23:48;;;;;;;53.22;22.00;;;8.10;72.50;;;;;;5075606;28;20052;-77
2021/04/07 03:26:14;;;;;;;59.78;24.77;;;8.10;72.50;;;;;;5075367;28;20031;-77
2021/04/07 03:28:40;;;;;;;63.25;27.52;;;8.10;72.70;;;;;;5074933;28;20033;-76
2021/04/07 03:31:05;;;;;;;50.35;24.92;;;8.10;72.60;;;;;;5073757;28;20021;-76
2021/04/07 03:33:34;;;;;;;42.97;20.23;;;8.10;72.40;;;;;;5074769;28;20474;-76
2021/04/07 03:36:01;;;;;;;33.63;17.75;;;8.10;72.10;;;;;;5074796;28;20553;-76
2021/04/07 03:38:27;;;;;;;36.05;15.20;;;8.00;72.10;;;;;;5074876;28;20028;-76
2021/04/07 03:40:53;;;;;;;27.83;13.60;;;7.90;72.30;;;;;;5074617;28;20055;-77
2021/04/07 03:43:21;;;;;;;31.52;14.45;;;7.80;72.50;;;;;;5074662;28;20093;-77
2021/04/07 03:45:50;;;;;;;28.98;14.52;;;7.80;72.80;;;;;;5073532;28;20566;-76
2021/04/07 03:48:18;;;;;;;23.90;12.63;;;7.80;73.10;;;;;;5074974;28;20060;-79
2021/04/07 03:50:45;;;;;;;25.05;13.18;;;7.80;73.30;;;;;;5074490;28;20074;-76
2021/04/07 03:53:11;;;;;;;30.50;13.52;;;7.80;73.20;;;;;;5073158;28;20032;-76
2021/04/07 03:55:39;;;;;;;27.75;14.40;;;7.80;73.40;;;;;;5073038;28;20413;-76
2021/04/07 03:58:04;;;;;;;30.73;14.70;;;7.90;73.60;;;;;;5074401;28;20028;-76
2021/04/07 04:00:31;;;;;;;29.05;14.25;;;8.00;73.50;;;;;;5074142;28;20032;-77
2021/04/07 04:02:56;;;;;;;28.40;14.05;;;8.10;73.40;;;;;;5074427;28;20021;-76
2021/04/07 04:05:22;;;;;;;30.02;13.75;;;8.10;73.30;;;;;;5074591;28;20059;-77
2021/04/07 04:07:48;;;;;;;25.15;13.02;;;8.20;73.20;;;;;;5073801;28;20382;-76
2021/04/07 04:10:14;;;;;;;24.08;13.02;;;8.30;72.90;;;;;;5074157;28;20032;-76
2021/04/07 04:12:41;;;;;;;24.20;13.15;;;8.40;72.70;;;;;;5074562;28;20410;-76
2021/04/07 04:15:11;;;;;;;23.58;12.98;;;8.40;72.40;;;;;;5074188;28;20037;-78
2021/04/07 04:17:38;;;;;;;24.30;12.90;;;8.40;72.30;;;;;;5072758;28;20032;-77
2021/04/07 04:20:05;;;;;;;25.42;15.00;;;8.30;72.00;;;;;;5073635;28;20076;-77
2021/04/07 04:22:32;;;;;;;38.60;19.83;;;8.20;72.10;;;;;;5073543;28;20024;-76
2021/04/07 04:24:57;;;;;;;29.60;16.52;;;8.20;72.40;;;;;;5074326;28;20025;-76
2021/04/07 04:27:23;;;;;;;31.92;16.00;;;8.10;72.70;;;;;;5073888;28;20377;-76
2021/04/07 04:29:49;;;;;;;27.27;15.55;;;8.20;72.90;;;;;;5072628;28;20024;-77
2021/04/07 04:32:14;;;;;;;32.65;15.82;;;8.10;72.90;;;;;;5073794;28;20031;-76
2021/04/07 04:34:40;;;;;;;25.27;14.35;;;8.10;72.90;;;;;;5073466;28;20042;-77
2021/04/07 04:37:06;;;;;;;26.17;14.43;;;8.20;73.00;;;;;;5073523;28;20028;-76
2021/04/07 04:39:32;;;;;;;25.88;13.70;;;8.20;73.20;;;;;;5072381;28;20446;-77
2021/04/07 04:41:58;;;;;;;28.98;14.15;;;8.20;73.30;;;;;;5074263;28;20048;-76
2021/04/07 04:44:23;;;;;;;33.15;17.25;;;8.30;73.30;;;;;;5073221;28;20120;-75
2021/04/07 04:46:49;;;;;;;25.25;14.38;;;8.40;73.30;;;;;;5073577;28;20020;-76
2021/04/07 04:49:15;;;;;;;24.67;15.07;;;8.40;73.40;;;;;;5073172;28;20029;-76
2021/04/07 04:51:40;;;;;;;26.40;15.00;;;8.60;73.20;;;;;;5073410;28;20025;-77
2021/04/07 04:54:06;;;;;;;30.00;15.70;;;8.70;73.00;;;;;;5073373;28;20059;-77
2021/04/07 04:56:32;;;;;;;27.30;16.77;;;8.90;72.70;;;;;;5073370;28;20020;-78
2021/04/07 04:58:58;;;;;;;27.30;16.10;;;9.00;72.30;;;;;;5072836;28;20025;-76
2021/04/07 05:01:23;;;;;;;29.58;16.67;;;9.00;71.90;;;;;;5071679;28;20028;-78
2021/04/07 05:03:49;;;;;;;31.75;16.65;;;9.00;71.70;;;;;;5072998;28;20104;-77
2021/04/07 05:06:15;;;;;;;31.67;16.10;;;9.00;71.60;;;;;;5072576;28;20532;-77
2021/04/07 05:08:44;;;;;;;21.10;12.63;;;9.10;71.40;;;;;;5072184;28;20028;-77
2021/04/07 05:11:09;;;;;;;24.67;14.43;;;9.10;71.40;;;;;;5066309;28;20032;-76
2021/04/07 05:13:35;;;;;;;26.05;13.73;;;9.10;71.10;;;;;;5067241;28;20122;-77
2021/04/07 05:16:01;;;;;;;24.23;13.38;;;9.00;71.10;;;;;;5072572;28;20397;-79
2021/04/07 05:18:27;;;;;;;23.58;12.65;;;9.00;70.90;;;;;;5072426;28;20146;-76
2021/04/07 05:20:53;;;;;;;23.85;12.43;;;9.00;70.60;;;;;;5071687;28;20013;-77
2021/04/07 05:23:19;;;;;;;22.17;12.27;;;8.90;70.80;;;;;;5073077;28;20036;-76
2021/04/07 05:25:44;;;;;;;24.00;12.60;;;8.90;71.00;;;;;;5072771;28;20028;-76
2021/04/07 05:28:10;;;;;;;23.45;11.65;;;8.80;71.10;;;;;;5071649;28;20028;-76
2021/04/07 05:33:21;;;;;;;47.03;24.23;;;8.90;71.10;;;;;;5072651;28;20406;-77
2021/04/07 05:35:47;;;;;;;27.75;13.98;;;9.00;71.20;;;;;;5072235;28;20191;-78
2021/04/07 05:38:13;;;;;;;24.02;13.95;;;9.00;71.30;;;;;;5073175;28;20108;-77
2021/04/07 05:40:40;;;;;;;28.88;15.93;;;9.20;71.00;;;;;;5072303;28;20359;-76
2021/04/07 05:43:06;;;;;;;19.00;11.98;;;9.20;70.80;;;;;;5073324;28;20024;-77
2021/04/07 05:45:32;;;;;;;21.00;11.77;;;9.20;70.30;;;;;;5073223;28;20424;-76
2021/04/07 05:47:57;;;;;;;23.25;12.07;;;9.20;70.30;;;;;;5071654;28;20028;-77
2021/04/07 05:50:23;;;;;;;20.88;12.38;;;9.20;70.20;;;;;;5071348;28;20458;-78
2021/04/07 05:52:53;;;;;;;22.60;12.15;;;9.20;70.40;;;;;;5072754;28;20035;-77
2021/04/07 05:55:19;;;;;;;21.33;12.55;;;9.30;70.50;;;;;;5071740;28;20052;-78
2021/04/07 05:58:16;;;;;;;20.08;11.00;;;9.40;70.40;;;;;;5071240;28;20450;-77
2021/04/07 06:00:43;;;;;;;17.70;10.40;;;9.40;69.80;;;;;;5071048;28;20461;-77
2021/04/07 06:03:10;;;;;;;20.25;11.68;;;9.50;69.50;;;;;;5070955;28;20048;-78
2021/04/07 06:05:36;;;;;;;23.63;13.15;;;9.60;69.40;;;;;;5071571;28;20040;-76
2021/04/07 06:08:03;;;;;;;21.67;13.15;;;9.70;69.30;;;;;;5069000;28;20025;-76
2021/04/07 06:10:30;;;;;;;20.88;11.38;;;9.70;69.00;;;;;;5071166;28;20437;-78
2021/04/07 06:13:00;;;;;;;16.45;9.88;;;9.70;68.60;;;;;;5071618;28;20021;-77
2021/04/07 06:15:26;;;;;;;16.23;8.98;;;9.70;68.60;;;;;;5069220;28;20039;-77
2021/04/07 06:17:55;;;;;;;15.43;9.40;;;9.80;68.30;;;;;;5071429;28;20462;-77
2021/04/07 06:20:22;;;;;;;15.70;10.10;;;9.70;68.10;;;;;;5073812;28;20048;-78
2021/04/07 06:22:48;;;;;;;16.30;10.02;;;9.70;68.40;;;;;;5076126;28;20029;-76
2021/04/07 06:25:15;;;;;;;21.27;10.63;;;9.80;68.50;;;;;;5076414;28;20040;-77
2021/04/07 06:27:41;;;;;;;15.05;9.15;;;9.80;68.70;;;;;;5075750;28;20090;-77
2021/04/07 06:30:08;;;;;;;15.68;9.80;;;9.90;68.70;;;;;;5075803;28;20021;-78
2021/04/07 06:32:34;;;;;;;13.80;9.75;;;10.00;68.40;;;;;;5076446;28;20024;-76
2021/04/07 06:34:59;;;;;;;19.15;10.85;;;10.20;68.40;;;;;;5075331;28;20039;-77
2021/04/07 06:37:25;;;;;;;15.75;10.60;;;10.30;68.00;;;;;;5076007;28;20032;-77
2021/04/07 06:39:51;;;;;;;20.60;12.13;;;10.50;67.60;;;;;;5075879;28;20027;-77
2021/04/07 06:42:18;;;;;;;24.08;12.15;;;10.50;67.40;;;;;;5074746;28;20067;-77
2021/04/07 06:44:44;;;;;;;18.70;11.43;;;10.70;67.10;;;;;;5074483;28;20036;-77
2021/04/07 06:47:12;;;;;;;18.23;11.43;;;10.90;66.80;;;;;;5075727;28;20146;-77
2021/04/07 06:49:40;;;;;;;19.58;11.85;;;11.10;66.40;;;;;;5075819;28;20024;-77
2021/04/07 06:52:11;;;;;;;20.42;11.45;;;11.30;66.20;;;;;;5074948;28;20494;-77
2021/04/07 06:54:38;;;;;;;15.65;10.65;;;11.50;65.70;;;;;;5075501;28;20037;-78
2021/04/07 06:57:04;;;;;;;16.83;10.48;;;11.60;65.00;;;;;;5075356;28;20029;-76
2021/04/07 06:59:30;;;;;;;17.98;10.80;;;11.80;64.60;;;;;;5074032;28;20130;-78
2021/04/07 07:01:56;;;;;;;20.50;11.50;;;12.00;64.10;;;;;;5075784;28;20044;-77
2021/04/07 07:04:21;;;;;;;20.27;11.93;;;12.20;63.70;;;;;;5075805;28;20032;-76
2021/04/07 07:06:53;;;;;;;20.15;12.40;;;12.50;63.50;;;;;;5075191;28;20040;-77
2021/04/07 07:09:19;;;;;;;18.13;11.82;;;12.80;62.80;;;;;;5074667;28;20028;-76
2021/04/07 07:11:50;;;;;;;18.98;13.35;;;13.20;62.40;;;;;;5074034;28;20024;-78
2021/04/07 07:14:18;;;;;;;22.85;14.48;;;13.40;61.20;;;;;;5074552;28;20029;-78
2021/04/07 07:16:45;;;;;;;19.13;13.52;;;13.50;60.60;;;;;;5074284;28;20023;-76
2021/04/07 07:19:21;;;;;;;21.92;13.20;;;13.50;60.20;;;;;;5073763;28;20411;-76
2021/04/07 07:21:56;;;;;;;22.73;12.82;;;13.50;59.60;;;;;;5073859;28;20370;-77
2021/04/07 07:24:30;;;;;;;20.67;13.07;;;13.50;59.30;;;;;;5069379;28;20096;-77
2021/04/07 07:26:56;;;;;;;22.30;14.55;;;13.50;59.00;;;;;;5067551;28;20060;-77
2021/04/07 07:29:31;;;;;;;18.23;13.27;;;13.40;59.30;;;;;;5074033;28;20099;-78
2021/04/07 07:32:02;;;;;;;;;;;13.60;59.30;;;;;;5067348;28;20074;-77
2021/04/07 07:34:29;;;;;;;20.45;12.27;;;13.90;60.00;;;;;;5074475;28;20242;-77
2021/04/07 07:36:56;;;;;;;20.58;12.52;;;14.30;59.50;;;;;;5073885;28;20020;-77
2021/04/07 07:39:26;;;;;;;18.35;12.82;;;14.90;58.50;;;;;;5074452;28;20029;-78
2021/04/07 07:41:55;;;;;;;17.95;13.10;;;15.30;57.20;;;;;;5074410;28;20099;-77
2021/04/07 07:44:21;;;;;;;20.63;12.60;;;15.70;56.10;;;;;;5075200;28;20421;-77
2021/04/07 07:46:55;;;;;;;21.42;12.50;;;16.00;55.50;;;;;;5075057;28;20029;-77
2021/04/07 07:49:21;;;;;;;17.63;13.07;;;16.40;54.50;;;;;;5074306;28;20083;-77
2021/04/07 07:51:49;;;;;;;20.48;12.52;;;16.80;54.20;;;;;;5073123;28;20508;-76
2021/04/07 07:54:16;;;;;;;17.10;11.90;;;17.20;53.30;;;;;;5074848;28;20036;-77
2021/04/07 07:56:43;;;;;;;19.23;11.88;;;17.40;52.30;;;;;;5074603;28;20040;-76
2021/04/07 07:59:09;;;;;;;15.57;11.23;;;17.50;51.70;;;;;;5074079;28;20040;-78
2021/04/07 08:01:46;;;;;;;16.17;11.25;;;17.50;51.10;;;;;;5073253;28;20382;-76
2021/04/07 08:04:12;;;;;;;18.95;12.70;;;17.40;50.80;;;;;;5073227;28;20032;-79
2021/04/07 08:06:37;;;;;;;20.67;13.73;;;17.20;50.80;;;;;;5073455;28;20482;-77
2021/04/07 08:09:04;;;;;;;19.25;14.75;;;17.00;51.00;;;;;;5073972;28;20059;-76
2021/04/07 08:11:30;;;;;;;19.05;12.90;;;16.80;51.00;;;;;;5074075;28;20072;-77
2021/04/07 08:13:58;;;;;;;18.60;12.65;;;16.60;51.10;;;;;;5073652;28;20028;-76
2021/04/07 08:16:29;;;;;;;16.08;10.98;;;16.50;51.20;;;;;;5073188;28;20032;-77
2021/04/07 08:18:55;;;;;;;18.08;12.80;;;16.40;52.00;;;;;;5071161;28;20052;-76
2021/04/07 08:21:23;;;;;;;19.13;13.45;;;16.30;51.50;;;;;;5073863;28;20087;-76
2021/04/07 08:23:56;;;;;;;17.75;12.75;;;16.20;51.70;;;;;;5073685;28;20032;-78
2021/04/07 08:26:27;;;;;;;20.42;12.88;;;16.10;51.50;;;;;;5072782;28;20038;-78
2021/04/07 08:28:54;;;;;;;20.75;12.55;;;15.90;51.60;;;;;;5070374;28;20040;-79
2021/04/07 08:31:22;;;;;;;18.25;13.23;;;15.80;51.90;;;;;;5073284;28;20023;-78
2021/04/07 08:33:50;;;;;;;18.10;12.48;;;15.70;52.20;;;;;;5072755;28;20486;-78
2021/04/07 08:36:19;;;;;;;19.73;12.52;;;15.80;52.50;;;;;;5072602;28;20429;-77
2021/04/07 08:38:45;;;;;;;20.52;13.25;;;15.90;52.30;;;;;;5071575;28;20024;-80
2021/04/07 08:41:19;;;;;;;23.35;14.15;;;16.00;52.10;;;;;;5072432;28;20036;-79
2021/04/07 08:43:46;;;;;;;17.45;12.57;;;16.00;51.90;;;;;;5071180;28;20461;-78
2021/04/07 08:46:19;;;;;;;17.23;12.52;;;16.10;51.80;;;;;;5071686;28;20024;-77
2021/04/07 08:48:45;;;;;;;21.60;13.30;;;16.00;51.60;;;;;;5072510;28;20090;-77
2021/04/07 08:51:13;;;;;;;17.20;13.48;;;16.00;51.70;;;;;;5071880;28;20107;-77
2021/04/07 08:53:41;;;;;;;16.67;12.02;;;16.00;51.70;;;;;;5072068;28;20067;-77
2021/04/07 08:56:10;;;;;;;17.58;11.73;;;16.00;51.60;;;;;;5072459;28;20029;-76
2021/04/07 08:58:49;;;;;;;18.90;12.90;;;16.00;51.60;;;;;;5070215;28;20407;-77
2021/04/07 09:01:34;;;;;;;18.80;12.40;;;16.00;51.60;;;;;;5069916;28;20021;-77
2021/04/07 09:04:09;;;;;;;17.77;12.57;;;16.10;51.50;;;;;;5070530;28;20369;-78
2021/04/07 09:06:58;;;;;;;27.77;14.95;;;16.10;52.00;;;;;;5069782;28;20031;-77
2021/04/07 09:09:24;;;;;;;20.35;11.68;;;16.00;51.30;;;;;;5070913;28;20052;-77
2021/04/07 09:11:52;;;;;;;19.33;11.75;;;15.90;51.40;;;;;;5072801;28;20560;-77
2021/04/07 09:14:19;;;;;;;12.05;9.65;;;15.70;51.50;;;;;;5073805;28;20066;-78
2021/04/07 09:16:45;;;;;;;14.20;8.93;;;15.60;51.70;;;;;;5074253;28;20311;-78
2021/04/07 09:19:15;;;;;;;18.00;9.23;;;15.40;51.90;;;;;;5074009;28;20056;-77
2021/04/07 09:21:56;;;;;;;16.63;9.43;;;15.20;52.40;;;;;;5073395;28;20033;-78
2021/04/07 09:24:24;;;;;;;15.25;9.50;;;15.00;52.70;;;;;;5073277;28;20544;-77
2021/04/07 09:26:50;;;;;;;15.15;10.18;;;14.90;53.20;;;;;;5073985;28;20046;-79
2021/04/07 09:29:16;;;;;;;13.05;8.65;;;14.90;53.50;;;;;;5073145;28;20028;-76
2021/04/07 09:31:44;;;;;;;11.98;8.80;;;14.80;53.70;;;;;;5072828;28;20033;-77
2021/04/07 09:34:13;;;;;;;15.52;9.35;;;14.80;53.90;;;;;;5071375;28;20154;-77
2021/04/07 09:36:41;;;;;;;13.88;9.18;;;14.80;54.00;;;;;;5073026;28;20028;-78
2021/04/07 09:39:12;;;;;;;13.57;9.02;;;14.70;54.20;;;;;;5072737;28;20386;-77
2021/04/07 09:41:40;;;;;;;15.77;9.88;;;14.70;54.30;;;;;;5072790;28;20069;-70
2021/04/07 09:44:07;;;;;;;13.25;9.68;;;14.70;54.50;;;;;;5072360;28;20530;-70
2021/04/07 09:46:34;;;;;;;16.42;10.90;;;14.60;54.50;;;;;;5072288;28;20028;-70
2021/04/07 09:49:06;;;;;;;24.25;14.07;;;14.60;54.60;;;;;;5072390;28;20032;-70
2021/04/07 09:51:36;;;;;;;19.33;12.73;;;14.50;54.80;;;;;;5071171;28;20036;-71
2021/04/07 09:54:12;;;;;;;21.20;12.40;;;14.40;54.80;;;;;;5074179;28;20025;-70
2021/04/07 09:57:01;;;;;;;15.18;10.60;;;14.40;55.10;;;;;;5076659;28;20025;-70
2021/04/07 09:59:40;;;;;;;16.30;9.93;;;14.40;55.00;;;;;;5076541;28;20089;-69
2021/04/07 10:02:26;;;;;;;16.23;10.27;;;14.50;54.90;;;;;;5073727;28;20035;-70
2021/04/07 10:04:53;;;;;;;18.27;10.68;;;14.50;55.00;;;;;;5075994;28;20111;-70
2021/04/07 10:07:25;;;;;;;14.82;9.65;;;14.60;55.20;;;;;;5076264;28;20531;-71
2021/04/07 10:09:52;;;;;;;16.83;10.40;;;14.70;55.20;;;;;;5074990;28;20063;-70
2021/04/07 10:12:21;;;;;;;17.38;9.77;;;15.00;55.00;;;;;;5076244;28;20456;-71
2021/04/07 10:14:58;;;;;;;16.73;10.18;;;15.10;54.70;;;;;;5075735;28;20047;-71
2021/04/07 10:17:28;;;;;;;14.43;10.27;;;15.20;54.20;;;;;;5075488;28;20032;-70
2021/04/07 10:19:55;;;;;;;14.50;10.02;;;15.30;54.10;;;;;;5074752;28;20498;-70
2021/04/07 10:22:27;;;;;;;16.13;10.40;;;15.30;54.00;;;;;;5076400;28;20035;-71
2021/04/07 10:24:58;;;;;;;15.82;10.60;;;15.40;53.80;;;;;;5075901;28;20497;-69
2021/04/07 10:27:25;;;;;;;13.88;9.43;;;15.50;53.70;;;;;;5076042;28;20036;-71
2021/04/07 10:30:07;;;;;;;18.83;9.63;;;15.60;53.60;;;;;;5074405;28;20417;-70
2021/04/07 10:32:44;;;;;;;18.58;11.23;;;15.70;53.30;;;;;;5074038;28;20025;-71
2021/04/07 10:35:17;;;;;;;16.23;10.52;;;16.00;53.00;;;;;;5073644;28;20051;-70
2021/04/07 10:38:12;;;;;;;18.35;11.07;;;16.30;53.00;;;;;;5069183;28;20127;-71
2021/04/07 10:40:45;;;;;;;15.40;10.73;;;16.60;52.00;;;;;;5065675;28;20035;-71
2021/04/07 10:43:16;;;;;;;15.93;10.65;;;16.70;51.50;;;;;;5064883;28;20032;-70
2021/04/07 10:45:56;;;;;;;13.80;9.55;;;16.70;50.90;;;;;;5073016;28;20036;-69
2021/04/07 10:48:21;;;;;;;18.17;11.23;;;16.40;50.80;;;;;;5075329;28;20020;-71
2021/04/07 10:50:47;;;;;;;16.30;10.77;;;16.10;51.10;;;;;;5075534;28;20028;-69
2021/04/07 10:53:13;;;;;;;13.48;10.50;;;15.70;51.50;;;;;;5075485;28;20021;-70
2021/04/07 10:55:39;;;;;;;17.20;10.55;;;15.40;52.00;;;;;;5075158;28;20502;-70
2021/04/07 10:58:05;;;;;;;19.73;12.63;;;15.10;52.50;;;;;;5075371;28;20025;-69
2021/04/07 11:00:36;;;;;;;18.35;13.23;;;14.70;53.00;;;;;;5073630;28;20425;-70
2021/04/07 11:03:03;;;;;;;25.88;15.85;;;14.20;53.70;;;;;;5074636;28;20032;-70
2021/04/07 11:05:44;;;;;;;22.23;16.23;;;13.80;54.40;;;;;;5074595;28;20036;-70
2021/04/07 11:08:12;;;;;;;24.90;16.75;;;13.40;55.20;;;;;;5075304;28;20471;-69
2021/04/07 11:10:39;;;;;;;24.00;15.90;;;12.90;55.80;;;;;;5074900;28;20024;-70
2021/04/07 11:13:05;;;;;;;20.73;14.63;;;12.50;56.50;;;;;;5074932;28;20417;-69
2021/04/07 11:15:31;;;;;;;24.80;15.70;;;12.20;57.10;;;;;;5073722;28;20040;-70
2021/04/07 11:17:57;;;;;;;20.05;12.48;;;12.10;57.80;;;;;;5075009;28;20024;-70
2021/04/07 11:20:28;;;;;;;18.17;11.13;;;12.00;58.10;;;;;;5075005;28;20449;-72
2021/04/07 11:22:54;;;;;;;16.27;9.88;;;11.90;58.10;;;;;;5074913;28;20523;-70
2021/04/07 11:25:20;;;;;;;17.73;9.70;;;11.80;58.10;;;;;;5074974;28;20033;-71
2021/04/07 11:27:47;;;;;;;17.08;9.25;;;11.70;58.20;;;;;;5074611;28;20025;-73
2021/04/07 11:30:13;;;;;;;16.00;9.25;;;11.60;58.50;;;;;;5074732;28;20163;-70
2021/04/07 11:32:44;;;;;;;18.50;8.90;;;11.60;58.70;;;;;;5074643;28;20074;-73
2021/04/07 11:38:01;;;;;;;11.30;7.65;;;11.50;58.90;;;;;;5074750;28;20032;-71
2021/04/07 11:43:08;;;;;;;16.17;8.35;;;11.30;59.10;;;;;;5074140;28;20032;-70
2021/04/07 11:45:34;;;;;;;14.07;6.68;;;11.20;59.30;;;;;;5074669;28;20033;-70
2021/04/07 11:48:00;;;;;;;9.93;6.28;;;11.20;59.50;;;;;;5074087;28;20046;-71
2021/04/07 11:50:26;;;;;;;14.98;7.65;;;11.20;59.60;;;;;;5074551;28;20037;-71
2021/04/07 11:52:51;;;;;;;17.63;6.53;;;11.10;59.60;;;;;;5074106;28;20030;-70
2021/04/07 11:55:17;;;;;;;13.25;7.50;;;11.10;59.80;;;;;;5074398;28;20070;-69
2021/04/07 11:57:43;;;;;;;16.58;7.78;;;11.10;60.00;;;;;;5074475;28;20320;-75
2021/04/07 12:00:11;;;;;;;10.25;5.95;;;11.20;60.10;;;;;;5073514;28;20115;-73
2021/04/07 12:02:40;;;;;;;8.57;4.88;;;11.30;60.00;;;;;;5074924;28;20050;-83
2021/04/07 12:05:07;;;;;;;8.50;5.00;;;11.40;59.80;;;;;;5074285;28;20338;-73
2021/04/07 12:07:33;;;;;;;9.68;5.97;;;11.40;59.60;;;;;;5074675;28;20462;-79
2021/04/07 12:09:58;;;;;;;9.88;4.70;;;11.50;59.30;;;;;;5074351;28;20029;-78
2021/04/07 12:12:24;;;;;;;8.60;4.88;;;11.60;59.10;;;;;;5073042;28;20020;-77
2021/04/07 12:14:50;;;;;;;9.20;4.85;;;11.60;59.00;;;;;;5073799;28;20472;-79
2021/04/07 12:17:15;;;;;;;11.95;6.82;;;11.40;58.90;;;;;;5073404;28;20024;-78
2021/04/07 12:19:41;;;;;;;13.82;7.82;;;11.40;59.00;;;;;;5073366;28;20079;-79
2021/04/07 12:22:07;;;;;;;14.02;7.75;;;11.30;59.20;;;;;;5074442;28;20028;-77
2021/04/07 12:24:33;;;;;;;14.98;8.13;;;11.20;59.20;;;;;;5073676;28;20032;-78
2021/04/07 12:26:58;;;;;;;10.35;5.75;;;11.00;59.40;;;;;;5073255;28;20028;-78
2021/04/07 12:29:24;;;;;;;9.82;5.10;;;10.90;59.60;;;;;;5073639;28;20455;-78
2021/04/07 12:31:50;;;;;;;9.23;5.22;;;10.80;59.80;;;;;;5073809;28;20032;-79
2021/04/07 12:34:16;;;;;;;9.82;6.03;;;10.60;60.00;;;;;;5073629;28;20048;-78
2021/04/07 12:36:42;;;;;;;9.32;6.28;;;10.40;60.30;;;;;;5073205;28;20024;-79
2021/04/07 12:39:08;;;;;;;16.27;8.25;;;10.30;60.60;;;;;;5071086;28;20091;-78
2021/04/07 12:44:03;;;;;;;10.10;6.80;;;10.00;61.40;;;;;;5070677;28;20092;-77
2021/04/07 12:46:29;;;;;;;11.63;6.55;;;9.80;61.70;;;;;;5063858;28;20023;-78
2021/04/07 12:48:55;;;;;;;9.35;5.05;;;9.70;62.10;;;;;;5063710;28;20021;-78